• Join FlightAware (Why Join?)
  • Login
  • US Flag 
12:08AM EDT


 

Airport Tracker/Info


-or-


 

Live Flight TrackerFlight Track Log ✈ KAP927 ✈ 06-Jul-2013 ✈ KBOS - KALB

Flight Track Log - Related Links

Times and Time Zones

All times are in EDT time to prevent confusion due to time zone crossing. See the KAP927 flight status page for this flight to view local times or setup timezone preferences in your user account.

Time Position Orientation Groundspeed Altitude Reporting Facility
EDT Latitude Longitude Course Direction KTS MPH feet Rate Location/Type
01:47PM 42.3500 -71.0167 270° West 116 133 700  Level KA90
01:49PM 42.3500 -71.0500 270° West 106 122 1,800 720 Climbing KA90
01:50PM 42.3333 -71.1000 246° West 101 116 2,500 600 Climbing KA90
01:51PM 42.3333 -71.1500 270° West 110 127 3,100 660 Climbing KA90
01:52PM 42.3333 -71.1833 270° West 114 131 3,800 600 Climbing KA90
01:53PM 42.3333 -71.2167 270° West 112 129 4,300 660 Climbing KA90
01:54PM 42.3167 -71.2667 246° West 113 130 5,200 720 Climbing KA90
01:55PM 42.3167 -71.3167 270° West 112 129 6,000 660 Climbing KA90
01:56PM 42.3167 -71.3500 270° West 112 129 6,600 660 Climbing KA90
01:57PM 42.3167 -71.4000 270° West 112 129 7,300 720 Climbing KA90
01:58PM 42.3000 -71.4333 236° Southwest 110 127 8,000 660 Climbing KA90
01:59PM 42.3006 -71.4800 271° West 113 130 8,600 600 Climbing Boston Center
02:00PM 42.2944 -71.5167 257° West 115 132 9,100 600 Climbing Boston Center
02:01PM 42.2908 -71.5617 264° West 116 133 9,800 480 Climbing Boston Center
02:02PM 42.2869 -71.6039 263° West 123 142 10,100 120 Climbing Boston Center
02:03PM 42.2831 -71.6683 265° West 142 163 10,100  Level Boston Center
02:04PM 42.2772 -71.7161 261° West 146 168 10,100  Level Boston Center
02:05PM 42.2756 -71.7694 268° West 142 163 10,100  Level Boston Center
02:06PM 42.2717 -71.8228 264° West 141 162 10,100  Level Boston Center
02:07PM 42.2739 -71.8733 273° West 138 159 10,100  Level Boston Center
02:08PM 42.2722 -71.9239 267° West 138 159 10,100  Level Boston Center
02:09PM 42.2722 -71.9800 270° West 139 160 10,100  Level Boston Center
02:10PM 42.2747 -72.0275 274° West 133 153 10,100  Level Boston Center
02:11PM 42.2747 -72.0808 270° West 139 160 10,100  Level Boston Center
02:12PM 42.2894 -72.1286 293° West 136 157 10,100  Level Boston Center
02:13PM 42.3042 -72.1761 293° West 133 153 10,100  Level Boston Center
02:14PM 42.3169 -72.2239 290° West 135 155 10,100  Level Boston Center
02:15PM 42.3314 -72.2772 290° West 138 159 10,100  Level Boston Center
02:16PM 42.3442 -72.3250 290° West 139 160 10,100  Level Boston Center
02:17PM 42.3586 -72.3728 292° West 139 160 10,100  Level Boston Center
02:18PM 42.3733 -72.4289 290° West 137 158 10,100  Level Boston Center
02:19PM 42.3858 -72.4739 291° West 133 153 10,100  Level Boston Center
02:20PM 42.4003 -72.5217 292° West 135 155 10,100  Level Boston Center
02:21PM 42.4128 -72.5694 290° West 135 155 10,100  Level Boston Center
02:22PM 42.4272 -72.6258 289° West 136 157 10,100  Level Boston Center
02:23PM 42.4439 -72.6736 295° West 136 157 10,100  Level Boston Center
02:24PM 42.4583 -72.7186 294° West 137 158 10,100  Level Boston Center
02:25PM 42.4686 -72.7639 287° West 138 159 10,100  Level Boston Center
02:26PM 42.4831 -72.8117 292° West 138 159 10,200  Climbing Boston Center
02:27PM 42.4975 -72.8681 289° West 133 153 10,200  Level Boston Center
02:28PM 42.5119 -72.9189 291° West 145 167 10,200  Level Boston Center
02:29PM 42.5264 -72.9669 292° West 136 157 10,200  Level Boston Center
02:30PM 42.5364 -73.0092 288° West 136 157 10,200  Level Boston Center
02:31PM 42.5489 -73.0600 288° West 139 160 10,200  Level Boston Center
02:32PM 42.5650 -73.1139 292° West 137 158 10,200  Level Boston Center
02:33PM 42.5772 -73.1619 289° West 135 155 10,200 -240 Level Boston Center
02:34PM 42.5917 -73.2156 290° West 139 160 9,800 -360 Descending Boston Center
02:35PM 42.6036 -73.2667 288° West 146 168 9,500 -300 Descending Boston Center
02:36PM 42.6219 -73.3203 295° West 150 173 9,200 -480 Descending Boston Center
02:37PM 42.6361 -73.3769 289° West 158 182 8,600 -600 Descending Boston Center
02:38PM 42.6503 -73.4367 288° West 168 193 8,000 -720 Descending Boston Center
02:39PM 42.6664 -73.4961 290° West 168 193 7,200 -840 Descending Boston Center
02:40PM 42.6847 -73.5472 296° West 160 184 6,400 -840 Descending Boston Center
02:41PM 42.6947 -73.5983 285° West 144 166 5,600 -900 Descending Boston Center
02:42PM 42.7044 -73.6494 285° West 145 167 4,700 -900 Descending Boston Center
02:43PM 42.6978 -73.7028 260° West 145 167 3,800 -1,080 Descending Boston Center
02:44PM 42.6972 -73.7536 269° West 126 145 2,600 -1,140 Descending Boston Center
02:45PM 42.7133 -73.7936 299° West 100 115 1,400 -1,140 Descending Boston Center
02:47PM 42.7333 -73.8000 290° West  Level FlightAware Approximate
02:54PM 42.7491 -73.8020 290° West  Level Estimated
02:55PM 42.7491 -73.8020 290° West  Level Estimated
02:56PM 42.7491 -73.8020 290° West  Level Estimated
02:57PM 42.7491 -73.8020 290° West  Level Estimated